Chrysanthemum — C6XO4 — position and weather

sailwx.info

Track history (hours):
 
Tides and Currents Weather Stations Pressure Air Temp Water Temp Dewpoint Dewpoint Depression Visibility Wind Speed Wind Dir Waves Ship Positions

Chrysanthemum

Last reported at 2017-Sep-27 19:55 UTC. Time now 2017-Oct-22 04:50 UTC.
Position N 01°18' E 104°04'.
Warning: this ship's position is 24 days out of date.

Length 244 m; draft 7.8 m.

Type: Ship. MMSI: 311015300.

Date/timePositionNaut miles runAvg speedWind from/ knotsBaromVisibWave heightAir tempDewpointWater temp
2017-Sep-27 19:55N 01°18' E 104°04'0 0.0
2017-Sep-27 19:17N 01°18' E 104°04'0 0.0
2017-Sep-27 18:53N 01°18' E 104°04'0 0.0
2017-Sep-27 18:28N 01°18' E 104°04'0 0.0
2017-Sep-27 17:40N 01°18' E 104°04'0 0.0
2017-Sep-27 17:29N 01°18' E 104°04'43 9.7
2017-Sep-27 13:04N 01°17' E 103°22'312.7
2017-Sep-27 12:51N 01°15' E 103°24'412.8
2017-Sep-27 12:30N 01°14' E 103°28'612.8
2017-Sep-27 12:00N 01°12' E 103°34'713.1
2017-Sep-27 11:30N 01°10' E 103°41'611.2
2017-Sep-27 11:00N 01°09' E 103°46'612.0
2017-Sep-27 10:30N 01°12' E 103°51'611.7
2017-Sep-27 10:00N 01°14' E 103°57'814.7
2017-Sep-27 09:27N 01°18' E 104°04'0 0.4
2017-Sep-27 09:00N 01°18' E 104°04'0 0.3
2017-Sep-27 08:26N 01°18' E 104°04'0 0.3
2017-Sep-27 07:50N 01°18' E 104°04'0 0.0
2017-Sep-27 07:23N 01°18' E 104°04'0 0.0
2017-Sep-27 06:44N 01°18' E 104°04'0 0.4
2017-Sep-27 06:26N 01°18' E 104°04'0 0.0
2017-Sep-27 05:44N 01°18' E 104°04'0 0.0
2017-Sep-27 05:29N 01°18' E 104°04'0 0.1
2017-Sep-27 01:38N 01°18' E 104°04'0 0.1
2017-Sep-27 01:29N 01°18' E 104°04'0 0.0
2017-Sep-27 00:29N 01°18' E 104°04'0 0.1
2017-Sep-26 22:01N 01°18' E 104°04'0 0.3
2017-Sep-26 22:00N 01°18' E 104°04'3 5.7
2017-Sep-26 21:29N 01°18' E 104°07'2 2.5
2017-Sep-26 20:50N 01°17' E 104°09'2 5.6
2017-Sep-26 20:24N 01°17' E 104°11'3 5.8
2017-Sep-26 19:58N 01°18' E 104°13'4 5.8
2017-Sep-26 19:17N 01°18' E 104°17'  
2017-Sep-19 07:57N 30°31' E 126°37'713.1
2017-Sep-19 07:23N 30°38' E 126°41'  
Track history (hours):
 
Tides and Currents Weather Stations Pressure Air Temp Water Temp Dewpoint Dewpoint Depression Visibility Wind Speed Wind Dir Waves Ship Positions

Chrysanthemum

Last reported at 2017-Sep-27 19:55 UTC. Time now 2017-Oct-22 04:50 UTC.
Position N 01°18' E 104°04'.
Warning: this ship's position is 24 days out of date.

Length 244 m; draft 7.8 m.

Type: Ship. MMSI: 311015300.

Date/timePositionNaut miles runAvg speedWind from/ knotsBaromVisibWave heightAir tempDewpointWater temp
2017-Sep-27 19:55N 01°18' E 104°04'0 0.0
2017-Sep-27 19:17N 01°18' E 104°04'0 0.0
2017-Sep-27 18:53N 01°18' E 104°04'0 0.0
2017-Sep-27 18:28N 01°18' E 104°04'0 0.0
2017-Sep-27 17:40N 01°18' E 104°04'0 0.0
2017-Sep-27 17:29N 01°18' E 104°04'43 9.7
2017-Sep-27 13:04N 01°17' E 103°22'312.7
2017-Sep-27 12:51N 01°15' E 103°24'412.8
2017-Sep-27 12:30N 01°14' E 103°28'612.8
2017-Sep-27 12:00N 01°12' E 103°34'713.1
2017-Sep-27 11:30N 01°10' E 103°41'611.2
2017-Sep-27 11:00N 01°09' E 103°46'612.0
2017-Sep-27 10:30N 01°12' E 103°51'611.7
2017-Sep-27 10:00N 01°14' E 103°57'814.7
2017-Sep-27 09:27N 01°18' E 104°04'0 0.4
2017-Sep-27 09:00N 01°18' E 104°04'0 0.3
2017-Sep-27 08:26N 01°18' E 104°04'0 0.3
2017-Sep-27 07:50N 01°18' E 104°04'0 0.0
2017-Sep-27 07:23N 01°18' E 104°04'0 0.0
2017-Sep-27 06:44N 01°18' E 104°04'0 0.4
2017-Sep-27 06:26N 01°18' E 104°04'0 0.0
2017-Sep-27 05:44N 01°18' E 104°04'0 0.0
2017-Sep-27 05:29N 01°18' E 104°04'0 0.1
2017-Sep-27 01:38N 01°18' E 104°04'0 0.1
2017-Sep-27 01:29N 01°18' E 104°04'0 0.0
2017-Sep-27 00:29N 01°18' E 104°04'0 0.1
2017-Sep-26 22:01N 01°18' E 104°04'0 0.3
2017-Sep-26 22:00N 01°18' E 104°04'3 5.7
2017-Sep-26 21:29N 01°18' E 104°07'2 2.5
2017-Sep-26 20:50N 01°17' E 104°09'2 5.6
2017-Sep-26 20:24N 01°17' E 104°11'3 5.8
2017-Sep-26 19:58N 01°18' E 104°13'4 5.8
2017-Sep-26 19:17N 01°18' E 104°17'  
2017-Sep-19 07:57N 30°31' E 126°37'713.1
2017-Sep-19 07:23N 30°38' E 126°41'  

Dump ship's entire track history